createdAt,value
2022-11-07T00:00:49.770Z,9.14
2022-11-07T00:03:56.167Z,9.16
2022-11-07T00:07:02.530Z,9.32
2022-11-07T00:10:08.690Z,9.18
2022-11-07T00:13:14.385Z,9.31
2022-11-07T00:16:20.810Z,9.22
2022-11-07T00:19:26.624Z,9.12
2022-11-07T00:22:32.491Z,9.23
2022-11-07T00:25:38.165Z,9.29
2022-11-07T00:28:44.845Z,9.23
2022-11-07T00:31:50.795Z,9.28
2022-11-07T00:34:56.172Z,9.32
2022-11-07T00:38:01.688Z,9.38
2022-11-07T00:41:07.890Z,9.31
2022-11-07T00:44:12.946Z,9.08
2022-11-07T00:47:18.357Z,9.29
2022-11-07T00:50:24.175Z,9.22
2022-11-07T00:53:30.070Z,9.13
2022-11-07T00:56:35.547Z,8.95
2022-11-07T00:59:40.974Z,8.78
2022-11-07T01:03:06.521Z,8.80
2022-11-07T01:06:12.376Z,8.73
2022-11-07T01:09:21.396Z,8.44
2022-11-07T01:12:27.054Z,8.69
2022-11-07T01:15:32.310Z,8.71
2022-11-07T01:18:38.052Z,8.71
2022-11-07T01:21:44.223Z,8.75
2022-11-07T01:24:49.910Z,8.59
2022-11-07T01:27:55.552Z,8.48
2022-11-07T01:31:09.775Z,8.54
2022-11-07T01:34:15.208Z,8.41
2022-11-07T01:37:20.857Z,8.50
2022-11-07T01:40:26.641Z,8.51
2022-11-07T01:43:55.634Z,8.61
2022-11-07T01:47:02.454Z,8.58
2022-11-07T01:50:09.545Z,8.57
2022-11-07T01:53:15.400Z,8.43
2022-11-07T01:56:26.495Z,8.38
2022-11-07T01:59:34.466Z,8.26
2022-11-07T02:02:41.364Z,8.04
2022-11-07T02:05:57.841Z,8.08
2022-11-07T02:09:03.898Z,8.23
2022-11-07T02:12:09.404Z,8.13
2022-11-07T02:15:14.954Z,8.14
2022-11-07T02:18:22.913Z,7.94
2022-11-07T02:21:40.676Z,7.95
2022-11-07T02:24:49.965Z,7.83
2022-11-07T02:28:00.551Z,7.94
2022-11-07T02:31:06.000Z,7.86
2022-11-07T02:34:11.663Z,7.86
2022-11-07T02:37:27.686Z,7.87
2022-11-07T02:40:34.438Z,7.84
2022-11-07T02:43:47.391Z,7.62
2022-11-07T02:46:53.193Z,7.61
2022-11-07T02:49:58.225Z,7.72
2022-11-07T02:53:04.232Z,7.81
2022-11-07T02:56:10.381Z,7.63
2022-11-07T02:59:16.026Z,7.52
2022-11-07T03:02:21.628Z,7.55
2022-11-07T03:05:27.424Z,7.60
2022-11-07T03:08:32.575Z,7.57
2022-11-07T03:11:38.291Z,7.62
2022-11-07T03:14:43.930Z,7.37
2022-11-07T03:17:49.626Z,7.43
2022-11-07T03:20:55.275Z,7.31
2022-11-07T03:24:01.105Z,7.15
2022-11-07T03:27:06.930Z,7.15
2022-11-07T03:30:12.855Z,6.87
2022-11-07T03:33:18.409Z,6.94
2022-11-07T03:36:24.307Z,7.13
2022-11-07T03:39:29.462Z,6.88
2022-11-07T03:42:39.966Z,6.83
2022-11-07T03:45:45.493Z,6.93
2022-11-07T03:48:50.775Z,6.96
2022-11-07T03:51:56.323Z,7.10
2022-11-07T03:55:01.773Z,7.00
2022-11-07T03:58:07.505Z,6.87
2022-11-07T04:01:14.010Z,6.81
2022-11-07T04:04:19.609Z,6.79
2022-11-07T04:07:25.046Z,6.91
2022-11-07T04:10:31.021Z,6.94
2022-11-07T04:13:55.314Z,6.99
2022-11-07T04:17:19.911Z,6.78
2022-11-07T04:20:25.785Z,6.76
2022-11-07T04:23:31.737Z,6.81
2022-11-07T04:26:55.712Z,6.82
2022-11-07T04:30:22.164Z,6.88
2022-11-07T04:33:27.615Z,6.94
2022-11-07T04:36:33.016Z,6.87
2022-11-07T04:39:38.816Z,6.69
2022-11-07T04:42:46.353Z,6.76
2022-11-07T04:45:52.786Z,6.74
2022-11-07T04:48:58.294Z,6.91
2022-11-07T04:52:03.479Z,6.68
2022-11-07T04:55:16.990Z,6.83
2022-11-07T04:58:22.590Z,6.46
2022-11-07T05:01:28.167Z,6.53
2022-11-07T05:04:33.862Z,6.62
2022-11-07T05:07:40.456Z,6.51
2022-11-07T05:10:46.081Z,6.33
2022-11-07T05:13:51.531Z,6.30
2022-11-07T05:16:58.308Z,6.29
2022-11-07T05:20:05.139Z,6.33
2022-11-07T05:23:16.265Z,6.31
2022-11-07T05:26:22.445Z,6.27
2022-11-07T05:29:27.835Z,6.49
2022-11-07T05:32:38.809Z,6.31
2022-11-07T05:35:45.718Z,5.84
2022-11-07T05:38:53.911Z,5.96
2022-11-07T05:42:02.013Z,5.96
2022-11-07T05:45:09.159Z,6.08
2022-11-07T05:48:14.861Z,5.88
2022-11-07T05:51:20.281Z,6.10
2022-11-07T05:54:28.337Z,6.17
2022-11-07T05:57:33.720Z,6.01
2022-11-07T06:00:40.754Z,6.02
2022-11-07T06:03:46.473Z,5.86
2022-11-07T06:06:51.939Z,5.76
2022-11-07T06:09:57.594Z,5.97
2022-11-07T06:13:06.004Z,5.87
2022-11-07T06:16:11.593Z,6.12
2022-11-07T06:19:17.408Z,6.06
2022-11-07T06:22:25.212Z,5.84
2022-11-07T06:25:31.597Z,5.94
2022-11-07T06:28:38.209Z,5.83
2022-11-07T06:31:43.896Z,5.85
2022-11-07T06:34:49.534Z,5.83
2022-11-07T06:37:55.237Z,5.89
2022-11-07T06:41:09.109Z,5.94
2022-11-07T06:44:14.935Z,6.15
2022-11-07T06:47:21.281Z,6.18
2022-11-07T06:50:26.929Z,6.11
2022-11-07T06:53:33.133Z,6.09
2022-11-07T06:56:38.757Z,6.13
2022-11-07T06:59:50.463Z,6.33
2022-11-07T07:02:59.075Z,6.40
2022-11-07T07:06:08.009Z,6.38
2022-11-07T07:09:13.358Z,6.60
2022-11-07T07:12:18.479Z,6.39
2022-11-07T07:15:24.619Z,6.57
2022-11-07T07:18:32.120Z,6.67
2022-11-07T07:21:37.723Z,6.84
2022-11-07T07:24:43.347Z,6.77
2022-11-07T07:27:49.265Z,6.96
2022-11-07T07:31:15.639Z,7.12
2022-11-07T07:34:20.927Z,7.23
2022-11-07T07:37:26.883Z,7.32
2022-11-07T07:40:32.729Z,7.51
2022-11-07T07:43:38.643Z,7.69
2022-11-07T07:46:44.525Z,7.71
2022-11-07T07:49:50.216Z,7.56
2022-11-07T07:53:02.506Z,7.81
2022-11-07T07:56:11.366Z,7.93
2022-11-07T07:59:17.577Z,8.10
2022-11-07T08:02:23.711Z,8.19
2022-11-07T08:05:29.336Z,8.08
2022-11-07T08:08:38.143Z,8.33
2022-11-07T08:11:44.479Z,8.49
2022-11-07T08:14:50.380Z,8.41
2022-11-07T08:17:56.018Z,8.53
2022-11-07T08:21:01.252Z,8.69
2022-11-07T08:24:07.356Z,8.81
2022-11-07T08:27:12.617Z,8.64
2022-11-07T08:30:18.409Z,8.80
2022-11-07T08:33:24.904Z,9.00
2022-11-07T08:36:30.477Z,9.14
2022-11-07T08:39:36.043Z,9.29
2022-11-07T08:42:41.665Z,9.29
2022-11-07T08:45:49.124Z,9.43
2022-11-07T08:48:54.659Z,9.57
2022-11-07T08:52:01.609Z,9.74
2022-11-07T08:55:07.971Z,9.72
2022-11-07T08:58:15.341Z,9.79
2022-11-07T09:01:20.851Z,9.99
2022-11-07T09:04:26.649Z,10.01
2022-11-07T09:07:32.048Z,10.19
2022-11-07T09:10:37.824Z,10.32
2022-11-07T09:13:43.430Z,10.26
2022-11-07T09:16:49.251Z,10.36
2022-11-07T09:19:54.782Z,10.32
2022-11-07T09:23:01.248Z,10.43
2022-11-07T09:26:08.187Z,10.61
2022-11-07T09:29:13.770Z,10.54
2022-11-07T09:32:43.516Z,10.70
2022-11-07T09:35:44.872Z,10.86
2022-11-07T09:38:51.122Z,10.96
2022-11-07T09:42:08.903Z,10.96
2022-11-07T09:45:15.046Z,11.13
2022-11-07T09:48:24.779Z,11.11
2022-11-07T09:51:37.088Z,11.20
2022-11-07T09:54:51.076Z,11.31
2022-11-07T09:58:02.532Z,11.35
2022-11-07T10:01:20.762Z,11.37
2022-11-07T10:04:27.066Z,11.46
2022-11-07T10:07:41.869Z,11.47
2022-11-07T10:10:58.981Z,11.64
2022-11-07T10:14:22.630Z,11.58
2022-11-07T10:17:50.302Z,11.59
2022-11-07T10:21:37.121Z,11.37
2022-11-07T10:25:19.426Z,11.57
2022-11-07T10:28:27.721Z,11.68
2022-11-07T10:31:39.819Z,11.84
2022-11-07T10:35:00.676Z,11.87
2022-11-07T10:38:25.525Z,11.95
2022-11-07T10:41:32.261Z,11.83
2022-11-07T10:44:42.099Z,11.87
2022-11-07T10:48:03.223Z,12.02
2022-11-07T10:51:08.691Z,12.12
2022-11-07T10:54:26.408Z,12.18
2022-11-07T10:57:34.615Z,12.20
2022-11-07T11:00:44.725Z,12.25
2022-11-07T11:03:51.024Z,12.31
2022-11-07T11:07:02.107Z,12.39
2022-11-07T11:10:21.270Z,12.47
2022-11-07T11:13:37.599Z,12.54
2022-11-07T11:16:43.921Z,12.57
2022-11-07T11:19:55.759Z,12.69
2022-11-07T11:23:02.639Z,12.81
2022-11-07T11:26:16.166Z,12.95
2022-11-07T11:29:42.167Z,12.94
2022-11-07T11:33:01.952Z,12.81
2022-11-07T11:36:24.670Z,12.99
2022-11-07T11:39:46.120Z,13.00
2022-11-07T11:43:01.249Z,13.03
2022-11-07T11:46:28.053Z,13.12
2022-11-07T11:49:43.742Z,13.12
2022-11-07T11:52:49.701Z,13.22
2022-11-07T11:56:09.299Z,13.18
2022-11-07T11:59:27.091Z,13.31
2022-11-07T12:02:53.479Z,13.50
2022-11-07T12:06:26.638Z,13.44
2022-11-07T12:09:35.328Z,13.49
2022-11-07T12:12:43.339Z,13.59
2022-11-07T12:16:12.796Z,13.48
2022-11-07T12:19:21.325Z,13.54
2022-11-07T12:22:48.284Z,13.70
2022-11-07T12:26:37.139Z,13.75
2022-11-07T12:30:10.582Z,13.95
2022-11-07T12:33:27.986Z,14.02
2022-11-07T12:36:52.531Z,14.10
2022-11-07T12:40:30.972Z,14.10
2022-11-07T12:43:45.348Z,14.21
2022-11-07T12:46:57.076Z,14.12
2022-11-07T12:51:04.022Z,14.09
2022-11-07T12:54:42.009Z,14.28
2022-11-07T12:58:07.395Z,14.56
2022-11-07T13:01:20.628Z,14.45
2022-11-07T13:04:54.964Z,14.42
2022-11-07T13:08:27.022Z,14.42
2022-11-07T13:11:58.267Z,14.47
2022-11-07T13:15:05.943Z,14.49
2022-11-07T13:18:37.307Z,14.35
2022-11-07T13:21:44.486Z,14.58
2022-11-07T13:25:16.290Z,14.50
2022-11-07T13:28:29.716Z,14.47
2022-11-07T13:31:39.089Z,14.60
2022-11-07T13:34:47.382Z,14.50
2022-11-07T13:38:15.908Z,14.53
2022-11-07T13:41:23.207Z,14.62
2022-11-07T13:44:35.776Z,14.60
2022-11-07T13:47:43.050Z,14.70
2022-11-07T13:51:18.379Z,14.60
2022-11-07T13:54:36.422Z,14.60
2022-11-07T13:57:46.338Z,14.72
2022-11-07T14:00:52.014Z,14.75
2022-11-07T14:03:57.748Z,14.65
2022-11-07T14:07:03.962Z,14.63
2022-11-07T14:10:31.119Z,14.65
2022-11-07T14:13:41.491Z,14.57
2022-11-07T14:16:47.535Z,14.60
2022-11-07T14:19:53.322Z,14.60
2022-11-07T14:23:01.393Z,14.53
2022-11-07T14:26:31.180Z,14.53
2022-11-07T14:29:36.778Z,14.40
2022-11-07T14:32:52.447Z,14.26
2022-11-07T14:36:06.403Z,14.34
2022-11-07T14:39:15.941Z,14.45
2022-11-07T14:42:25.839Z,14.60
2022-11-07T14:46:06.122Z,14.62
2022-11-07T14:48:57.689Z,14.50
2022-11-07T14:52:03.284Z,14.64
2022-11-07T14:55:41.804Z,14.60
2022-11-07T14:58:47.604Z,14.32
2022-11-07T15:01:59.874Z,14.16
2022-11-07T15:05:11.008Z,13.99
2022-11-07T15:08:30.492Z,13.94
2022-11-07T15:11:38.562Z,13.86
2022-11-07T15:14:44.292Z,13.68
2022-11-07T15:17:52.722Z,13.60
2022-11-07T15:21:00.276Z,13.57
2022-11-07T15:24:30.403Z,13.45
2022-11-07T15:27:40.739Z,13.36
2022-11-07T15:30:47.477Z,13.20
2022-11-07T15:33:55.510Z,13.07
2022-11-07T15:37:01.091Z,12.89
2022-11-07T15:40:17.437Z,12.81
2022-11-07T15:43:23.331Z,12.76
2022-11-07T15:46:34.978Z,12.73
2022-11-07T15:49:40.519Z,12.65
2022-11-07T15:52:47.727Z,12.55
2022-11-07T15:56:01.719Z,12.44
2022-11-07T15:59:19.837Z,12.34
2022-11-07T16:02:25.571Z,12.24
2022-11-07T16:05:31.550Z,12.12
2022-11-07T16:08:36.982Z,12.09
2022-11-07T16:11:42.090Z,12.13
2022-11-07T16:14:47.314Z,12.07
2022-11-07T16:17:52.762Z,11.96
2022-11-07T16:20:58.802Z,11.86
2022-11-07T16:24:04.614Z,11.78
2022-11-07T16:27:16.198Z,11.69
2022-11-07T16:30:22.790Z,11.64
2022-11-07T16:33:29.793Z,11.61
2022-11-07T16:36:36.398Z,11.51
2022-11-07T16:39:41.905Z,11.47
2022-11-07T16:42:48.386Z,11.42
2022-11-07T16:45:56.370Z,11.40
2022-11-07T16:49:14.156Z,11.37
2022-11-07T16:52:20.202Z,11.33
2022-11-07T16:55:25.693Z,11.30
2022-11-07T16:58:35.909Z,11.28
2022-11-07T17:01:41.846Z,11.24
2022-11-07T17:04:48.058Z,11.14
2022-11-07T17:07:56.119Z,11.09
2022-11-07T17:11:01.876Z,11.02
2022-11-07T17:14:07.507Z,11.03
2022-11-07T17:17:15.487Z,11.01
2022-11-07T17:20:49.291Z,10.96
2022-11-07T17:23:49.639Z,10.99
2022-11-07T17:26:55.555Z,10.94
2022-11-07T17:30:03.340Z,10.88
2022-11-07T17:33:15.367Z,10.97
2022-11-07T17:36:36.346Z,10.92
2022-11-07T17:39:46.030Z,10.75
2022-11-07T17:42:51.072Z,10.71
2022-11-07T17:45:56.836Z,10.71
2022-11-07T17:49:08.337Z,10.80
2022-11-07T17:52:13.971Z,10.86
2022-11-07T17:55:21.411Z,10.72
2022-11-07T17:58:26.951Z,10.83
2022-11-07T18:01:35.151Z,10.77
2022-11-07T18:04:41.726Z,10.82
2022-11-07T18:07:47.930Z,10.68
2022-11-07T18:11:01.027Z,10.59
2022-11-07T18:14:06.641Z,10.58
2022-11-07T18:17:11.887Z,10.59
2022-11-07T18:20:17.726Z,10.64
2022-11-07T18:23:23.412Z,10.50
2022-11-07T18:26:31.334Z,10.34
2022-11-07T18:29:36.621Z,10.20
2022-11-07T18:32:43.147Z,9.82
2022-11-07T18:35:49.230Z,9.99
2022-11-07T18:38:54.763Z,10.22
2022-11-07T18:42:00.625Z,10.30
2022-11-07T18:45:06.230Z,10.15
2022-11-07T18:48:11.771Z,10.20
2022-11-07T18:51:21.476Z,10.11
2022-11-07T18:54:27.326Z,9.79
2022-11-07T18:57:33.065Z,10.17
2022-11-07T19:00:38.903Z,10.38
2022-11-07T19:03:45.481Z,10.46
2022-11-07T19:07:00.166Z,10.38
2022-11-07T19:10:06.509Z,10.37
2022-11-07T19:13:11.881Z,10.25
2022-11-07T19:16:19.083Z,10.15
2022-11-07T19:19:24.563Z,10.22
2022-11-07T19:22:31.465Z,10.24
2022-11-07T19:25:40.055Z,10.15
2022-11-07T19:28:45.346Z,10.10
2022-11-07T19:31:51.162Z,10.00
2022-11-07T19:34:57.406Z,10.06
2022-11-07T19:38:08.714Z,10.18
2022-11-07T19:41:16.540Z,10.20
2022-11-07T19:44:22.174Z,10.24
2022-11-07T19:47:29.675Z,9.86
2022-11-07T19:50:35.225Z,9.96
2022-11-07T19:53:41.242Z,9.97
2022-11-07T19:56:47.055Z,9.95
2022-11-07T19:59:53.067Z,9.86
2022-11-07T20:02:58.896Z,9.74
2022-11-07T20:06:04.403Z,9.71
2022-11-07T20:12:37.217Z,9.74
2022-11-07T20:15:43.089Z,9.77
2022-11-07T20:18:49.409Z,9.94
2022-11-07T20:21:54.758Z,9.80
2022-11-07T20:25:00.752Z,9.77
2022-11-07T20:28:06.579Z,9.75
2022-11-07T20:31:18.086Z,9.60
2022-11-07T20:34:23.875Z,9.60
2022-11-07T20:37:29.386Z,9.63
2022-11-07T20:40:37.753Z,9.44
2022-11-07T20:43:45.016Z,9.59
2022-11-07T20:46:52.270Z,9.54
2022-11-07T20:49:57.914Z,9.48
2022-11-07T20:53:04.706Z,9.29
2022-11-07T20:56:10.764Z,9.33
2022-11-07T20:59:17.489Z,9.35
2022-11-07T21:02:24.368Z,9.29
2022-11-07T21:05:30.938Z,9.39
2022-11-07T21:08:44.261Z,9.39
2022-11-07T21:11:50.415Z,9.22
2022-11-07T21:14:56.189Z,9.24
2022-11-07T21:18:04.524Z,9.31
2022-11-07T21:21:22.849Z,9.36
2022-11-07T21:24:32.257Z,9.40
2022-11-07T21:27:38.046Z,9.46
2022-11-07T21:30:59.411Z,9.28
2022-11-07T21:34:07.897Z,9.36
2022-11-07T21:37:13.791Z,9.33
2022-11-07T21:40:19.720Z,9.20
2022-11-07T21:43:25.187Z,9.24
2022-11-07T21:46:34.851Z,9.24
2022-11-07T21:49:40.180Z,9.09
2022-11-07T21:52:46.303Z,8.97
2022-11-07T21:55:51.853Z,9.04
2022-11-07T21:59:00.628Z,9.08
2022-11-07T22:02:06.243Z,9.02
2022-11-07T22:05:15.694Z,9.00
2022-11-07T22:08:23.866Z,8.83
2022-11-07T22:11:29.893Z,8.81
2022-11-07T22:14:35.733Z,8.63
2022-11-07T22:17:41.433Z,8.73
2022-11-07T22:20:47.060Z,8.78
2022-11-07T22:23:52.760Z,8.73
2022-11-07T22:26:58.378Z,8.80
2022-11-07T22:30:05.262Z,8.79
2022-11-07T22:33:12.976Z,8.76
2022-11-07T22:36:19.730Z,8.76
2022-11-07T22:39:25.295Z,8.74
2022-11-07T22:42:31.200Z,8.81
2022-11-07T22:45:40.930Z,8.88
2022-11-07T22:48:48.393Z,8.75
2022-11-07T22:51:54.032Z,8.66
2022-11-07T22:54:59.761Z,8.60
2022-11-07T22:58:06.467Z,8.60
2022-11-07T23:01:22.612Z,8.53
2022-11-07T23:04:32.683Z,8.46
2022-11-07T23:07:39.854Z,8.46
2022-11-07T23:10:45.265Z,8.41
2022-11-07T23:13:52.380Z,8.58
2022-11-07T23:16:58.881Z,8.48
2022-11-07T23:20:05.615Z,8.75
2022-11-07T23:23:11.418Z,8.68
2022-11-07T23:26:19.071Z,8.52
2022-11-07T23:29:25.797Z,8.43
2022-11-07T23:32:31.879Z,8.45
2022-11-07T23:35:37.362Z,8.48
2022-11-07T23:38:45.017Z,8.43
2022-11-07T23:41:50.625Z,8.44
2022-11-07T23:45:15.141Z,8.23
2022-11-07T23:48:39.356Z,8.22
2022-11-07T23:51:47.017Z,8.18
2022-11-07T23:55:11.466Z,8.23
2022-11-07T23:58:35.871Z,8.21
